Time;durP1;ratioP1;P1;durP2;ratioP2;P2;SDS_P1;SDS_P2;PMS_P1;PMS_P2;Temp;Humidity;BMP_temperature;BMP_pressure;BME280_temperature;BME280_humidity;BME280_pressure;Samples;Min_cycle;Max_cycle;Signal;HPM_P1;HPM_P2
2023/10/29 15:09:25;;;;;;;2.33;1.10;;;18.10;39.50;;;;;;6167681;23;20205;-87
2023/10/29 15:11:56;;;;;;;2.35;1.00;;;18.10;40.30;;;;;;6170332;23;20170;-85
2023/10/29 15:14:23;;;;;;;3.63;1.00;;;18.10;39.70;;;;;;6194461;23;20153;-85
2023/10/29 15:16:48;;;;;;;2.03;0.70;;;18.10;39.60;;;;;;6172587;23;20199;-84
2023/10/29 15:19:14;;;;;;;1.23;1.02;;;18.10;39.70;;;;;;6172514;23;20145;-85
2023/10/29 15:24:46;;;;;;;3.10;1.20;;;18.20;39.40;;;;;;6201918;23;20430;-85
2023/10/29 15:27:11;;;;;;;4.53;1.10;;;18.20;39.40;;;;;;6170078;23;20178;-85
2023/10/29 15:29:38;;;;;;;7.28;1.25;;;18.20;39.80;;;;;;6142997;23;20525;-86
2023/10/29 15:32:06;;;;;;;1.42;1.17;;;18.20;39.70;;;;;;6142696;23;20222;-86
2023/10/29 15:34:31;;;;;;;4.30;1.00;;;18.20;39.60;;;;;;6169643;23;20505;-85
2023/10/29 15:36:57;;;;;;;1.70;0.90;;;18.20;39.50;;;;;;6167200;23;20232;-85
2023/10/29 15:39:23;;;;;;;5.03;0.93;;;18.20;39.60;;;;;;6169308;23;20157;-85
2023/10/29 15:41:49;;;;;;;1.52;1.10;;;18.30;39.90;;;;;;6167176;23;20130;-86
2023/10/29 15:44:15;;;;;;;2.60;0.93;;;18.20;39.60;;;;;;6164972;23;20939;-86
2023/10/29 15:46:43;;;;;;;9.70;1.33;;;18.30;39.60;;;;;;6189780;23;20143;-84
2023/10/29 15:49:09;;;;;;;1.65;1.25;;;18.30;39.90;;;;;;6145252;23;20176;-86
2023/10/29 15:51:34;;;;;;;2.35;0.82;;;18.30;39.70;;;;;;6142619;23;20228;-86
2023/10/29 15:54:00;;;;;;;1.10;0.90;;;18.20;39.90;;;;;;6140458;23;20596;-85
2023/10/29 15:56:26;;;;;;;1.38;1.08;;;18.30;40.00;;;;;;6217833;23;20142;-84
2023/10/29 15:58:53;;;;;;;2.42;0.90;;;18.40;39.90;;;;;;6165953;23;20224;-85
2023/10/29 16:01:22;;;;;;;3.50;0.93;;;18.30;39.70;;;;;;6218713;23;20130;-85
2023/10/29 16:03:55;;;;;;;3.38;1.02;;;18.30;39.70;;;;;;6167947;23;20176;-84
2023/10/29 16:06:21;;;;;;;2.08;1.00;;;18.30;39.70;;;;;;6096925;23;20154;-86
2023/10/29 16:08:47;;;;;;;2.60;1.00;;;18.30;39.70;;;;;;6171223;23;20221;-84
2023/10/29 16:11:21;;;;;;;1.20;0.88;;;18.30;39.70;;;;;;6191992;23;20193;-86
2023/10/29 16:13:47;;;;;;;2.00;1.00;;;18.30;39.70;;;;;;6171816;23;20222;-84
2023/10/29 16:16:13;;;;;;;2.17;1.05;;;18.30;39.70;;;;;;6169971;23;20142;-86
2023/10/29 16:18:39;;;;;;;2.78;0.98;;;18.40;40.00;;;;;;6192434;23;20166;-86
2023/10/29 16:21:04;;;;;;;1.92;0.88;;;18.40;40.00;;;;;;6166884;23;20168;-86
2023/10/29 16:23:31;;;;;;;1.67;1.33;;;18.40;39.90;;;;;;6141701;23;20217;-86
2023/10/29 16:26:00;;;;;;;1.10;1.00;;;18.30;39.90;;;;;;6166838;23;20138;-86
2023/10/29 16:28:27;;;;;;;2.40;0.80;;;18.40;39.90;;;;;;6144830;23;20161;-83
2023/10/29 16:30:55;;;;;;;0.85;0.82;;;18.30;39.80;;;;;;6191525;23;20131;-86
2023/10/29 16:33:27;;;;;;;1.40;0.90;;;18.30;39.80;;;;;;6144618;23;20178;-85
2023/10/29 16:36:01;;;;;;;2.03;0.80;;;18.30;39.80;;;;;;6170703;23;20135;-86
2023/10/29 16:38:33;;;;;;;3.03;0.98;;;18.30;39.80;;;;;;6198671;23;20199;-87
2023/10/29 16:41:04;;;;;;;3.78;1.13;;;18.40;40.00;;;;;;6125877;23;20165;-86
2023/10/29 16:43:31;;;;;;;8.00;1.02;;;18.30;40.00;;;;;;6124509;23;20163;-87
2023/10/29 16:45:57;;;;;;;5.93;1.10;;;18.30;40.00;;;;;;6172976;23;20154;-86
2023/10/29 16:48:25;;;;;;;3.83;1.10;;;18.40;40.20;;;;;;6147936;23;20146;-86
2023/10/29 16:50:51;;;;;;;6.28;0.93;;;18.40;40.10;;;;;;6146803;23;20156;-85
2023/10/29 16:53:16;;;;;;;13.45;1.38;;;18.40;40.00;;;;;;6146433;23;20146;-85
2023/10/29 16:55:42;;;;;;;3.97;1.00;;;18.40;40.10;;;;;;6173393;23;20131;-85
2023/10/29 16:58:08;;;;;;;2.65;1.10;;;18.40;40.00;;;;;;6195748;23;20188;-86
2023/10/29 17:00:34;;;;;;;2.58;1.13;;;18.40;40.00;;;;;;6193748;23;20217;-86
2023/10/29 17:03:00;;;;;;;2.15;0.90;;;18.40;39.90;;;;;;6195860;23;20566;-86
2023/10/29 17:05:29;;;;;;;2.22;0.82;;;18.30;39.80;;;;;;6195466;23;20164;-86
2023/10/29 17:07:55;;;;;;;2.10;0.98;;;18.40;39.90;;;;;;6145183;23;20157;-86
2023/10/29 17:10:21;;;;;;;2.38;0.80;;;18.40;39.80;;;;;;6140091;23;20495;-86
2023/10/29 17:12:47;;;;;;;2.25;0.90;;;18.40;39.90;;;;;;6192103;23;20177;-85
2023/10/29 17:15:17;;;;;;;0.95;0.73;;;18.40;40.00;;;;;;6143885;23;20146;-85
2023/10/29 17:17:44;;;;;;;3.10;0.90;;;18.40;40.10;;;;;;6097608;23;20209;-85
2023/10/29 17:20:10;;;;;;;2.45;1.13;;;18.40;40.10;;;;;;6091290;23;20154;-86
2023/10/29 17:22:41;;;;;;;4.55;0.98;;;18.50;40.10;;;;;;6165975;23;20138;-86
2023/10/29 17:25:08;;;;;;;1.27;0.85;;;18.50;40.10;;;;;;6143090;23;20154;-86
2023/10/29 17:27:35;;;;;;;3.05;0.90;;;18.50;40.00;;;;;;6170708;23;20166;-86
2023/10/29 17:30:03;;;;;;;1.70;0.80;;;18.50;39.90;;;;;;6190225;23;20163;-86
2023/10/29 17:32:29;;;;;;;2.42;0.70;;;18.50;39.80;;;;;;6169167;23;20150;-86
2023/10/29 17:34:57;;;;;;;2.88;0.98;;;18.50;40.00;;;;;;6171645;23;20184;-85
2023/10/29 17:37:23;;;;;;;3.25;0.80;;;18.50;40.00;;;;;;6193364;23;20221;-86
2023/10/29 17:39:53;;;;;;;5.47;1.10;;;18.50;40.00;;;;;;6168851;23;20202;-85
2023/10/29 17:42:33;;;;;;;2.60;0.77;;;18.50;40.00;;;;;;6134785;23;20151;-85
2023/10/29 17:45:06;;;;;;;1.27;0.82;;;18.50;40.10;;;;;;6041901;23;20151;-87
2023/10/29 17:47:35;;;;;;;1.50;0.70;;;18.50;40.10;;;;;;6039983;23;20507;-87
2023/10/29 17:50:09;;;;;;;2.15;0.77;;;18.40;40.00;;;;;;6062509;23;20201;-86
2023/10/29 17:52:41;;;;;;;0.80;0.75;;;18.50;40.10;;;;;;6065638;23;20159;-85
2023/10/29 17:55:08;;;;;;;2.63;0.80;;;18.60;40.10;;;;;;6083701;23;20152;-85
2023/10/29 17:57:33;;;;;;;1.05;0.80;;;18.50;40.00;;;;;;6107578;23;20183;-85
2023/10/29 17:59:59;;;;;;;2.83;1.00;;;18.50;40.00;;;;;;6057694;23;20199;-84
2023/10/29 18:02:25;;;;;;;2.22;0.90;;;18.50;40.10;;;;;;6083540;23;20460;-87
2023/10/29 18:04:51;;;;;;;3.25;1.20;;;18.50;40.10;;;;;;6058421;23;20155;-85
2023/10/29 18:07:54;;;;;;;2.63;1.08;;;18.50;40.10;;;;;;6105262;23;20152;-85
2023/10/29 18:10:22;;;;;;;1.60;1.10;;;18.50;40.10;;;;;;6045033;23;20645;-86
2023/10/29 18:12:53;;;;;;;3.58;1.05;;;18.50;40.10;;;;;;6100102;23;20155;-85
2023/10/29 18:15:18;;;;;;;7.13;1.10;;;18.50;40.10;;;;;;6037153;23;20163;-86
2023/10/29 18:17:49;;;;;;;2.55;1.10;;;18.50;40.10;;;;;;6084323;23;20176;-85
2023/10/29 18:20:17;;;;;;;1.73;1.10;;;18.40;40.10;;;;;;6095038;23;20241;-85
2023/10/29 18:22:48;;;;;;;7.82;1.38;;;18.50;40.10;;;;;;6171268;23;20131;-86
2023/10/29 18:25:18;;;;;;;3.75;1.30;;;18.50;40.30;;;;;;6150611;23;20143;-85
2023/10/29 18:27:49;;;;;;;6.05;1.30;;;18.50;40.10;;;;;;6137672;23;20155;-86
2023/10/29 18:30:20;;;;;;;4.72;1.02;;;18.50;40.10;;;;;;6092871;23;20221;-86
2023/10/29 18:32:48;;;;;;;3.35;1.10;;;18.50;40.00;;;;;;6013498;23;20149;-85
2023/10/29 18:35:23;;;;;;;2.03;1.20;;;18.50;40.10;;;;;;5997535;24;20155;-86
2023/10/29 18:37:55;;;;;;;2.53;1.00;;;18.50;40.00;;;;;;5977126;24;20239;-86
2023/10/29 18:40:25;;;;;;;3.63;1.00;;;18.60;40.00;;;;;;5931091;24;20163;-85
2023/10/29 18:43:02;;;;;;;1.52;1.00;;;18.50;40.10;;;;;;5953935;24;20151;-86
2023/10/29 18:45:29;;;;;;;1.48;1.10;;;18.50;40.00;;;;;;5945129;24;20156;-86
2023/10/29 18:48:00;;;;;;;1.23;1.10;;;18.50;40.00;;;;;;5919552;24;20243;-86
2023/10/29 18:50:28;;;;;;;1.73;0.90;;;18.50;40.00;;;;;;5835634;24;20170;-87
2023/10/29 18:52:58;;;;;;;1.65;1.08;;;18.50;39.90;;;;;;5857738;24;20249;-87
2023/10/29 18:55:34;;;;;;;5.30;1.10;;;18.40;39.90;;;;;;5856785;24;20167;-86
2023/10/29 18:58:04;;;;;;;1.48;0.90;;;18.40;39.90;;;;;;5807733;24;20229;-86
2023/10/29 19:00:31;;;;;;;1.83;0.82;;;18.50;40.00;;;;;;5827864;24;20166;-87
2023/10/29 19:02:59;;;;;;;1.20;0.90;;;18.40;39.90;;;;;;5861956;24;20472;-86
2023/10/29 19:05:24;;;;;;;1.85;1.00;;;18.40;39.80;;;;;;5858671;24;20169;-87
2023/10/29 19:07:51;;;;;;;0.82;0.80;;;18.40;39.90;;;;;;5880961;24;20235;-87
2023/10/29 19:10:17;;;;;;;1.58;0.80;;;18.50;39.90;;;;;;5867236;24;20205;-88
2023/10/29 19:12:44;;;;;;;3.95;0.88;;;18.50;40.00;;;;;;5874554;24;20173;-87
2023/10/29 19:15:10;;;;;;;1.55;0.90;;;18.50;39.90;;;;;;5875821;24;20313;-86
2023/10/29 19:17:39;;;;;;;1.77;1.15;;;18.40;39.90;;;;;;5875809;24;20280;-88
2023/10/29 19:20:11;;;;;;;2.75;0.95;;;18.40;39.90;;;;;;5853523;24;20207;-87
2023/10/29 19:22:36;;;;;;;1.70;1.00;;;18.50;39.90;;;;;;5912425;24;20220;-88
2023/10/29 19:25:07;;;;;;;3.60;1.08;;;18.40;39.90;;;;;;5959220;24;20145;-87
2023/10/29 19:27:34;;;;;;;2.35;1.08;;;18.50;40.00;;;;;;5977813;23;20657;-84
2023/10/29 19:30:01;;;;;;;1.80;1.20;;;18.50;40.10;;;;;;6069937;23;20152;-88
2023/10/29 19:32:29;;;;;;;5.32;1.05;;;18.50;40.10;;;;;;6109557;23;20154;-87
2023/10/29 19:35:01;;;;;;;2.30;1.10;;;18.50;40.10;;;;;;6110235;23;20776;-87
2023/10/29 19:37:27;;;;;;;4.10;0.93;;;18.50;40.10;;;;;;6135954;23;20185;-85
2023/10/29 19:39:52;;;;;;;1.65;1.00;;;18.50;40.10;;;;;;6160436;23;20139;-86
2023/10/29 19:42:19;;;;;;;4.00;1.13;;;18.50;40.20;;;;;;6135737;23;20154;-86
2023/10/29 19:44:46;;;;;;;1.73;0.90;;;18.50;40.20;;;;;;6087882;23;20182;-87
2023/10/29 19:47:12;;;;;;;3.92;1.08;;;18.40;40.20;;;;;;6135520;23;20170;-86
2023/10/29 19:49:37;;;;;;;4.43;1.10;;;18.40;40.30;;;;;;6159993;23;20150;-87
2023/10/29 19:52:08;;;;;;;2.28;0.82;;;18.50;40.30;;;;;;6160017;23;20573;-86
2023/10/29 19:54:34;;;;;;;2.83;1.17;;;18.40;40.30;;;;;;6134762;23;20151;-86
2023/10/29 19:57:00;;;;;;;1.75;1.13;;;18.40;40.30;;;;;;6159399;23;20155;-87
2023/10/29 19:59:26;;;;;;;3.42;1.00;;;18.40;40.30;;;;;;6110817;23;20182;-86
2023/10/29 20:01:51;;;;;;;2.35;1.00;;;18.40;40.40;;;;;;6135588;23;20147;-87
2023/10/29 20:04:18;;;;;;;2.88;0.90;;;18.40;40.40;;;;;;6160016;23;20205;-88
2023/10/29 20:06:45;;;;;;;1.80;0.93;;;18.40;40.30;;;;;;6135108;23;20539;-87
2023/10/29 20:09:10;;;;;;;1.83;0.85;;;18.40;40.40;;;;;;6109683;23;20154;-86
2023/10/29 20:11:36;;;;;;;3.60;0.95;;;18.40;40.50;;;;;;6160056;23;20561;-86
2023/10/29 20:14:02;;;;;;;1.75;0.90;;;18.40;40.40;;;;;;6136359;23;20146;-85
2023/10/29 20:16:27;;;;;;;1.95;0.80;;;18.40;40.50;;;;;;6186082;23;20543;-88
2023/10/29 20:18:56;;;;;;;2.15;0.90;;;18.40;40.50;;;;;;6160497;23;20174;-87
2023/10/29 20:21:21;;;;;;;2.92;0.90;;;18.40;40.50;;;;;;6161498;23;20146;-88
2023/10/29 20:23:47;;;;;;;2.40;0.90;;;18.40;40.50;;;;;;6185330;23;20131;-86
2023/10/29 20:26:14;;;;;;;2.45;1.08;;;18.40;40.50;;;;;;6184866;23;20150;-87
2023/10/29 20:28:40;;;;;;;1.00;0.90;;;18.40;40.50;;;;;;6136328;23;20171;-87
2023/10/29 20:31:06;;;;;;;1.00;0.80;;;18.50;40.60;;;;;;6161061;23;20135;-86
2023/10/29 20:33:31;;;;;;;1.17;0.90;;;18.40;40.60;;;;;;6136447;23;20143;-86
2023/10/29 20:35:57;;;;;;;0.70;0.70;;;18.40;40.50;;;;;;6185327;23;20135;-87
2023/10/29 20:38:23;;;;;;;1.05;0.95;;;18.40;40.50;;;;;;6136263;23;20166;-88
2023/10/29 20:40:49;;;;;;;2.95;0.98;;;18.40;40.60;;;;;;6161223;23;20131;-87
2023/10/29 20:43:15;;;;;;;0.80;0.80;;;18.40;40.60;;;;;;6186123;23;20165;-87
2023/10/29 20:45:44;;;;;;;1.92;0.82;;;18.30;40.50;;;;;;6185637;23;20526;-86
2023/10/29 20:48:09;;;;;;;0.90;0.73;;;18.40;40.60;;;;;;6161444;23;20182;-87
2023/10/29 20:50:36;;;;;;;1.00;0.90;;;18.40;40.40;;;;;;6136682;23;20547;-88
2023/10/29 20:53:02;;;;;;;0.98;0.88;;;18.40;40.50;;;;;;6161164;23;20149;-87
2023/10/29 20:55:28;;;;;;;0.90;0.90;;;18.40;40.40;;;;;;6160396;23;20142;-87
2023/10/29 20:57:54;;;;;;;1.15;0.70;;;18.40;40.40;;;;;;6136279;23;20172;-87
2023/10/29 21:00:20;;;;;;;0.82;0.70;;;18.40;40.50;;;;;;6161256;23;20806;-87
2023/10/29 21:02:49;;;;;;;2.10;1.23;;;18.40;40.40;;;;;;6161658;23;20143;-88
2023/10/29 21:05:16;;;;;;;1.23;0.90;;;18.30;40.50;;;;;;6137927;23;20538;-87
2023/10/29 21:07:41;;;;;;;2.70;0.77;;;18.30;40.70;;;;;;6161654;23;20139;-87
2023/10/29 21:10:07;;;;;;;1.05;0.95;;;18.30;40.90;;;;;;6160585;23;20618;-87
2023/10/29 21:12:33;;;;;;;1.23;0.73;;;18.20;40.90;;;;;;6136556;23;20162;-87
2023/10/29 21:14:59;;;;;;;0.88;0.80;;;18.20;41.10;;;;;;6185985;23;20155;-87
2023/10/29 21:17:26;;;;;;;1.30;0.90;;;18.20;41.30;;;;;;6160463;23;20273;-87
2023/10/29 21:19:52;;;;;;;3.78;1.02;;;18.10;41.30;;;;;;6136234;23;20150;-87
2023/10/29 21:22:21;;;;;;;2.17;1.27;;;18.10;41.30;;;;;;6186228;23;20205;-86
2023/10/29 21:24:47;;;;;;;1.20;0.85;;;18.10;41.20;;;;;;6137545;23;20229;-86
2023/10/29 21:27:12;;;;;;;1.60;0.80;;;18.10;41.20;;;;;;6160888;23;20624;-86
2023/10/29 21:29:39;;;;;;;0.77;0.77;;;18.10;41.40;;;;;;6136044;23;20166;-87
2023/10/29 21:32:08;;;;;;;1.88;0.98;;;18.20;41.30;;;;;;6160503;23;20550;-86
2023/10/29 21:34:34;;;;;;;1.60;0.90;;;18.10;41.20;;;;;;6134866;23;20182;-86
2023/10/29 21:37:01;;;;;;;1.17;1.00;;;18.10;41.40;;;;;;6135051;23;20735;-87
2023/10/29 21:39:27;;;;;;;0.98;0.82;;;18.00;41.30;;;;;;6136487;23;20147;-86
2023/10/29 21:41:53;;;;;;;1.15;1.00;;;18.10;41.60;;;;;;6135837;23;20143;-87
2023/10/29 21:44:22;;;;;;;1.00;0.90;;;18.10;41.30;;;;;;6159886;23;20484;-89
2023/10/29 21:46:48;;;;;;;1.15;0.70;;;18.10;41.50;;;;;;6184386;23;20147;-86
2023/10/29 21:49:14;;;;;;;1.10;1.00;;;18.10;41.40;;;;;;6159608;23;20593;-87
2023/10/29 21:51:40;;;;;;;1.25;1.00;;;18.10;41.40;;;;;;6135295;23;20454;-87
2023/10/29 21:54:06;;;;;;;0.75;0.75;;;18.10;41.40;;;;;;6134153;23;20157;-87
2023/10/29 21:56:34;;;;;;;1.23;0.95;;;18.10;41.40;;;;;;6159695;23;20142;-86
2023/10/29 21:59:00;;;;;;;1.25;0.93;;;18.10;41.50;;;;;;6109523;23;20641;-85
2023/10/29 22:01:26;;;;;;;1.67;1.00;;;18.10;41.40;;;;;;6135147;23;20646;-87
2023/10/29 22:03:52;;;;;;;1.15;0.80;;;18.00;41.40;;;;;;6135015;23;20170;-86
2023/10/29 22:06:18;;;;;;;1.63;1.00;;;18.00;41.40;;;;;;6184250;23;20206;-87
2023/10/29 22:08:45;;;;;;;1.33;0.90;;;18.10;41.60;;;;;;6159793;23;20151;-87
2023/10/29 22:11:12;;;;;;;1.45;1.00;;;18.00;41.40;;;;;;6103682;23;20523;-87
2023/10/29 22:13:39;;;;;;;1.02;0.70;;;18.00;41.40;;;;;;6104395;23;20151;-86
2023/10/29 22:16:07;;;;;;;1.00;0.90;;;18.00;41.60;;;;;;6104558;23;20292;-87
2023/10/29 22:18:33;;;;;;;1.73;0.90;;;18.00;41.60;;;;;;6152937;23;20194;-87
2023/10/29 22:21:03;;;;;;;1.05;0.98;;;18.00;41.40;;;;;;6080299;23;20152;-87
2023/10/29 22:23:31;;;;;;;1.02;0.93;;;18.00;41.50;;;;;;6104190;23;20230;-87
2023/10/29 22:25:59;;;;;;;1.10;0.77;;;18.10;41.60;;;;;;6103812;23;20155;-88
2023/10/29 22:28:25;;;;;;;2.42;0.95;;;18.00;41.60;;;;;;6104267;23;20136;-88
2023/10/29 22:30:56;;;;;;;1.00;1.00;;;18.00;41.60;;;;;;6080055;23;20183;-86
2023/10/29 22:33:24;;;;;;;1.80;1.00;;;18.00;41.70;;;;;;6080724;23;20155;-87
2023/10/29 22:35:58;;;;;;;1.02;0.90;;;17.90;41.70;;;;;;6104459;23;20639;-87
2023/10/29 22:38:24;;;;;;;1.13;0.88;;;18.00;41.70;;;;;;6104297;23;20174;-87
2023/10/29 22:41:05;;;;;;;0.95;0.80;;;17.90;41.80;;;;;;6128588;23;20209;-86
2023/10/29 22:43:31;;;;;;;0.95;0.95;;;18.00;41.70;;;;;;6104096;23;20552;-86
2023/10/29 22:45:57;;;;;;;0.93;0.90;;;18.10;41.60;;;;;;6128807;23;20128;-88
2023/10/29 22:48:23;;;;;;;0.70;0.70;;;18.00;41.70;;;;;;6104317;23;20169;-87
2023/10/29 22:50:48;;;;;;;2.67;0.90;;;17.90;41.70;;;;;;6102566;23;20156;-87
2023/10/29 22:53:14;;;;;;;0.98;0.93;;;17.90;41.70;;;;;;6127735;23;20131;-87
2023/10/29 22:55:41;;;;;;;1.33;1.10;;;17.90;41.80;;;;;;6170107;23;20151;-86
2023/10/29 22:58:06;;;;;;;0.95;0.82;;;17.90;41.90;;;;;;6159988;23;20185;-86
2023/10/29 23:00:34;;;;;;;1.00;0.90;;;17.90;41.80;;;;;;6137027;23;20181;-87
2023/10/29 23:03:00;;;;;;;0.85;0.85;;;17.90;41.80;;;;;;6161711;23;20184;-87
2023/10/29 23:05:30;;;;;;;1.20;0.80;;;17.90;41.90;;;;;;6161595;23;20146;-88
2023/10/29 23:07:56;;;;;;;1.17;0.93;;;17.90;42.00;;;;;;6161923;23;20150;-88
2023/10/29 23:10:22;;;;;;;1.10;1.00;;;17.90;41.90;;;;;;6186002;23;20638;-87
2023/10/29 23:12:52;;;;;;;1.00;0.90;;;17.90;42.00;;;;;;6137203;23;20158;-86
2023/10/29 23:15:23;;;;;;;0.80;0.80;;;17.90;42.00;;;;;;6162350;23;20143;-87
2023/10/29 23:17:53;;;;;;;1.00;0.90;;;17.90;42.00;;;;;;6087258;23;20179;-86
2023/10/29 23:20:19;;;;;;;0.80;0.80;;;17.90;42.00;;;;;;6161746;23;20193;-85
2023/10/29 23:22:48;;;;;;;1.00;1.00;;;17.80;42.00;;;;;;6161584;23;20462;-85
2023/10/29 23:25:13;;;;;;;0.82;0.82;;;17.80;42.20;;;;;;6111404;23;20177;-86
2023/10/29 23:27:40;;;;;;;1.17;1.05;;;17.80;42.20;;;;;;6161753;23;20551;-86
2023/10/29 23:30:06;;;;;;;1.10;0.73;;;17.80;42.30;;;;;;6161107;23;20131;-87
2023/10/29 23:32:33;;;;;;;0.98;0.90;;;17.80;42.30;;;;;;6185981;23;20131;-86
2023/10/29 23:34:59;;;;;;;2.42;1.10;;;17.80;42.30;;;;;;6135773;23;20598;-86
2023/10/29 23:37:25;;;;;;;1.85;0.80;;;17.80;42.30;;;;;;6185969;23;20262;-86
2023/10/29 23:39:51;;;;;;;1.27;0.88;;;17.80;42.30;;;;;;6100662;23;20160;-86
2023/10/29 23:42:19;;;;;;;1.58;1.00;;;17.80;42.20;;;;;;6090677;23;20165;-85
2023/10/29 23:44:45;;;;;;;1.20;1.10;;;17.80;42.20;;;;;;6067087;23;20167;-87
2023/10/29 23:47:12;;;;;;;1.40;0.90;;;17.80;42.20;;;;;;6066887;23;20593;-86
2023/10/29 23:49:38;;;;;;;1.67;0.90;;;17.80;42.30;;;;;;6067003;23;20197;-86
2023/10/29 23:52:03;;;;;;;1.33;0.93;;;17.80;42.40;;;;;;6066992;23;20141;-87
2023/10/29 23:54:29;;;;;;;1.30;1.20;;;17.70;42.40;;;;;;6066189;23;20161;-87
2023/10/29 23:56:57;;;;;;;1.67;0.90;;;17.80;42.50;;;;;;6066902;23;20203;-87
2023/10/29 23:59:27;;;;;;;1.67;0.93;;;17.70;42.50;;;;;;6018736;23;20168;-87
